»·PEaware :: N896YH KAVX-KSAN

N896YH :: KAVX-KSAN

FLIGHT INFORMATION

Flight Status: Arrived
Operator: Privately registered:
United States
More flights under this callsign
Pilot: Hendrik S. (17810)
Aircraft: Unknown
(P28U)
More flights by this aircraft type
Origin: KAVX Catalina
United States
Destination: KSAN San Diego Intl-Lindbergh
United States
More flights between these airports :: More routes between these airports
Route: +SXC V208 VTU VTU282 KWANG
File this flight plan on PilotEdge
Remarks: I-8 Rating
Altitude:
(Current/Filed)
7,000ft
Speed:
(Current/Filed)
146kts
Departed: 28-Jul-18 10:25 AM
Arrived: 28-Jul-18 11:25 AM
Distance/Time
Traveled:
74nm/1:00
Distance/Time
To Go:
Arrived

Flight Plot

Page will automatically refresh every two minutes.

Flight plan parsing failed; only flown route is shown


Map Options




Map Legend


Flown Route
Filed Route
Departure Airport
Arrival Airport
Navaid (VOR, NDB)
Fix

Horizontal Profiles

Position Reports

Time Latitude Longitude Heading Altitude Ground
Speed
28-Jul-18 09:42 33.403292 -118.415955 0 1556ft 0kts
28-Jul-18 09:43 33.403292 -118.415955 45 1556ft 0kts
28-Jul-18 09:44 33.403292 -118.415955 45 1556ft 0kts
28-Jul-18 09:45 33.403292 -118.415955 45 1556ft 0kts
28-Jul-18 09:46 33.403292 -118.415955 45 1556ft 0kts
28-Jul-18 09:47 33.403292 -118.415955 45 1556ft 0kts
28-Jul-18 09:48 33.403292 -118.415955 45 1556ft 0kts
28-Jul-18 09:49 33.403292 -118.415955 45 1556ft 0kts
28-Jul-18 09:50 33.403292 -118.415955 45 1556ft 0kts
28-Jul-18 09:51 33.403292 -118.415955 45 1556ft 0kts
28-Jul-18 09:52 33.403292 -118.415955 45 1556ft 0kts
28-Jul-18 09:53 33.403292 -118.415955 45 1556ft 0kts
28-Jul-18 09:54 33.403292 -118.415955 45 1556ft 0kts
28-Jul-18 09:55 33.403292 -118.415955 45 1556ft 0kts
28-Jul-18 09:56 33.403292 -118.415955 45 1556ft 0kts
28-Jul-18 09:57 33.403292 -118.415955 45 1556ft 0kts
28-Jul-18 09:58 33.403292 -118.415955 45 1556ft 0kts
28-Jul-18 09:59 33.403292 -118.415955 45 1556ft 0kts
28-Jul-18 10:00 33.403292 -118.415955 45 1556ft 0kts
28-Jul-18 10:01 33.403292 -118.415955 45 1556ft 0kts
28-Jul-18 10:02 33.403292 -118.415955 45 1556ft 0kts
28-Jul-18 10:03 33.403292 -118.415955 45 1556ft 0kts
28-Jul-18 10:04 33.403292 -118.415955 45 1556ft 0kts
28-Jul-18 10:05 33.403292 -118.415955 45 1556ft 0kts
28-Jul-18 10:06 33.403292 -118.415955 45 1556ft 0kts
28-Jul-18 10:07 33.403292 -118.415955 45 1556ft 0kts
28-Jul-18 10:08 33.403292 -118.415955 45 1556ft 0kts
28-Jul-18 10:09 33.403292 -118.415955 45 1556ft 0kts
28-Jul-18 10:10 33.403292 -118.415955 45 1556ft 0kts
28-Jul-18 10:11 33.403292 -118.415954 44 1556ft 0kts
28-Jul-18 10:12 33.403292 -118.415954 44 1556ft 0kts
28-Jul-18 10:13 33.403292 -118.415954 44 1556ft 0kts
28-Jul-18 10:14 33.403292 -118.415954 44 1556ft 0kts
28-Jul-18 10:15 33.403292 -118.415954 44 1556ft 0kts
28-Jul-18 10:16 33.403292 -118.415954 44 1556ft 0kts
28-Jul-18 10:17 33.403292 -118.415954 44 1556ft 0kts
28-Jul-18 10:18 33.403292 -118.415954 44 1556ft 0kts
28-Jul-18 10:19 33.403292 -118.415954 44 1556ft 0kts
28-Jul-18 10:20 33.403293 -118.415954 44 1556ft 0kts
28-Jul-18 10:21 33.403292 -118.415954 44 1556ft 0kts
28-Jul-18 10:22 33.403292 -118.415954 44 1556ft 0kts
28-Jul-18 10:23 33.403292 -118.415954 44 1556ft 0kts
28-Jul-18 10:24 33.404106 -118.414989 349 1556ft 23kts
28-Jul-18 10:25 33.407010 -118.412345 232 1556ft 19kts
28-Jul-18 10:26 33.394637 -118.433023 235 2576ft 84kts
28-Jul-18 10:27 33.387120 -118.423353 79 3857ft 86kts
28-Jul-18 10:28 33.383349 -118.390670 94 4125ft 103kts
28-Jul-18 10:29 33.376647 -118.350113 104 4032ft 131kts
28-Jul-18 10:30 33.367524 -118.307932 100 4055ft 131kts
28-Jul-18 10:31 33.360952 -118.265006 98 4408ft 128kts
28-Jul-18 10:32 33.355653 -118.223226 101 4960ft 128kts
28-Jul-18 10:33 33.347651 -118.181508 102 5040ft 129kts
28-Jul-18 10:34 33.339198 -118.139799 100 5047ft 129kts
28-Jul-18 10:35 33.332768 -118.097502 96 5037ft 130kts
28-Jul-18 10:36 33.326923 -118.054470 100 4981ft 131kts
28-Jul-18 10:37 33.321416 -118.011290 96 4944ft 131kts
28-Jul-18 10:38 33.317080 -117.969384 99 4967ft 130kts
28-Jul-18 10:39 33.311613 -117.927467 97 4984ft 130kts
28-Jul-18 10:40 33.307048 -117.884566 98 5017ft 130kts
28-Jul-18 10:41 33.303966 -117.842053 101 5055ft 128kts
28-Jul-18 10:42 33.296616 -117.800637 107 5090ft 127kts
28-Jul-18 10:43 33.288188 -117.759921 106 5122ft 126kts
28-Jul-18 10:44 33.281005 -117.719028 100 5150ft 127kts
28-Jul-18 10:45 33.277633 -117.676865 100 5095ft 131kts
28-Jul-18 10:46 33.270992 -117.634196 107 4993ft 130kts
28-Jul-18 10:47 33.261373 -117.592897 109 4900ft 130kts
28-Jul-18 10:48 33.252669 -117.551993 101 4948ft 127kts
28-Jul-18 10:49 33.249296 -117.510452 93 5044ft 127kts
28-Jul-18 10:50 33.247902 -117.472438 99 5079ft 130kts
28-Jul-18 10:51 33.242566 -117.430045 103 5056ft 133kts
28-Jul-18 10:52 33.216484 -117.407810 159 5038ft 125kts
28-Jul-18 10:53 33.184757 -117.391965 161 5027ft 124kts
28-Jul-18 10:54 33.152799 -117.377968 159 5020ft 123kts
28-Jul-18 10:55 33.121599 -117.362158 156 5018ft 122kts
28-Jul-18 10:56 33.091843 -117.345393 160 4997ft 122kts
28-Jul-18 10:57 33.060283 -117.332033 167 4975ft 121kts
28-Jul-18 10:58 33.027201 -117.325273 176 4950ft 121kts
28-Jul-18 10:59 32.995744 -117.312491 154 4922ft 122kts
28-Jul-18 11:00 32.966305 -117.294162 158 4971ft 120kts
28-Jul-18 11:01 32.935603 -117.280298 161 5006ft 119kts
28-Jul-18 11:02 32.904144 -117.269002 165 5035ft 119kts
28-Jul-18 11:03 32.872928 -117.258166 167 5038ft 127kts
28-Jul-18 11:04 32.839314 -117.246859 167 4998ft 128kts
28-Jul-18 11:05 32.806580 -117.232028 136 4906ft 134kts
28-Jul-18 11:06 32.799352 -117.189927 101 4901ft 132kts
28-Jul-18 11:07 32.794345 -117.155391 104 4965ft 131kts
28-Jul-18 11:08 32.786988 -117.113441 103 5013ft 133kts
28-Jul-18 11:09 32.778096 -117.064372 106 5044ft 133kts
28-Jul-18 11:10 32.770095 -117.022246 102 5017ft 134kts
28-Jul-18 11:11 32.764219 -116.986522 104 4999ft 133kts
28-Jul-18 11:12 32.756694 -116.943315 103 4981ft 133kts
28-Jul-18 11:13 32.749373 -116.900278 105 4982ft 131kts
28-Jul-18 11:14 32.738031 -116.860156 142 4816ft 128kts
28-Jul-18 11:15 32.704104 -116.862250 195 4030ft 123kts
28-Jul-18 11:16 32.677901 -116.880417 254 3749ft 103kts
28-Jul-18 11:17 32.669172 -116.913499 251 3853ft 117kts
28-Jul-18 11:18 32.675611 -116.952427 293 3810ft 126kts
28-Jul-18 11:19 32.690591 -116.991577 290 3445ft 139kts
28-Jul-18 11:20 32.699985 -117.036695 283 2624ft 144kts
28-Jul-18 11:21 32.709234 -117.076714 277 1961ft 91kts
28-Jul-18 11:22 32.713875 -117.106669 275 1686ft 101kts
28-Jul-18 11:23 32.720569 -117.137108 283 1043ft 90kts
28-Jul-18 11:24 32.727198 -117.163136 280 413ft 79kts
28-Jul-18 11:25 32.732577 -117.185942 285 16ft 45kts
28-Jul-18 11:26 32.732409 -117.188611 214 16ft 0kts
28-Jul-18 11:27 32.732346 -117.188791 270 16ft 5kts
28-Jul-18 11:28 32.732280 -117.191088 274 16ft 0kts
28-Jul-18 11:29 32.732280 -117.191088 274 16ft 0kts
28-Jul-18 11:30 32.732280 -117.191088 274 16ft 0kts

Navigation Log

Ident Type
Flight plan parsing failed, navigation log unavailable